sensor_id;sensor_type;location;lat;lon;timestamp;pressure;altitude;pressure_sealevel;temperature;humidity
69624;BME280;56843;52.020;5.670;2023-01-31T00:01:20;102202.91;;;8.62;57.62
69624;BME280;56843;52.020;5.670;2023-01-31T00:02:51;102212.00;;;8.61;57.64
69624;BME280;56843;52.020;5.670;2023-01-31T00:04:21;102214.88;;;8.59;57.62
69624;BME280;56843;52.020;5.670;2023-01-31T00:05:52;102214.88;;;8.59;57.57
69624;BME280;56843;52.020;5.670;2023-01-31T00:07:22;102212.22;;;8.59;57.60
69624;BME280;56843;52.020;5.670;2023-01-31T00:08:54;102218.88;;;8.57;57.60
69624;BME280;56843;52.020;5.670;2023-01-31T00:10:24;102221.81;;;8.55;57.62
69624;BME280;56843;52.020;5.670;2023-01-31T00:11:55;102231.69;;;8.55;57.62
69624;BME280;56843;52.020;5.670;2023-01-31T00:13:26;102220.50;;;8.53;57.48
69624;BME280;56843;52.020;5.670;2023-01-31T00:14:57;102216.25;;;8.52;57.67
69624;BME280;56843;52.020;5.670;2023-01-31T00:16:27;102213.59;;;8.52;57.64
69624;BME280;56843;52.020;5.670;2023-01-31T00:17:58;102217.31;;;8.51;57.67
69624;BME280;56843;52.020;5.670;2023-01-31T00:19:28;102222.94;;;8.49;57.68
69624;BME280;56843;52.020;5.670;2023-01-31T00:21:10;102208.81;;;8.49;57.53
69624;BME280;56843;52.020;5.670;2023-01-31T00:22:41;102220.56;;;8.48;57.61
69624;BME280;56843;52.020;5.670;2023-01-31T00:24:13;102212.56;;;8.48;57.73
69624;BME280;56843;52.020;5.670;2023-01-31T00:25:43;102220.00;;;8.46;57.66
69624;BME280;56843;52.020;5.670;2023-01-31T00:27:13;102218.44;;;8.45;57.53
69624;BME280;56843;52.020;5.670;2023-01-31T00:28:45;102215.75;;;8.45;57.58
69624;BME280;56843;52.020;5.670;2023-01-31T00:30:16;102214.69;;;8.46;57.50
69624;BME280;56843;52.020;5.670;2023-01-31T00:31:47;102208.28;;;8.47;57.49
69624;BME280;56843;52.020;5.670;2023-01-31T00:33:18;102208.28;;;8.47;57.44
69624;BME280;56843;52.020;5.670;2023-01-31T00:34:48;102207.50;;;8.46;57.39
69624;BME280;56843;52.020;5.670;2023-01-31T00:36:21;102208.28;;;8.47;57.43
69624;BME280;56843;52.020;5.670;2023-01-31T00:37:52;102206.69;;;8.46;57.36
69624;BME280;56843;52.020;5.670;2023-01-31T00:39:22;102209.34;;;8.46;57.30
69624;BME280;56843;52.020;5.670;2023-01-31T00:40:53;102203.50;;;8.44;57.41
69624;BME280;56843;52.020;5.670;2023-01-31T00:42:24;102204.59;;;8.43;57.32
69624;BME280;56843;52.020;5.670;2023-01-31T00:43:54;102206.44;;;8.42;57.31
69624;BME280;56843;52.020;5.670;2023-01-31T00:45:25;102198.47;;;8.42;57.29
69624;BME280;56843;52.020;5.670;2023-01-31T00:46:55;102192.63;;;8.40;57.20
69624;BME280;56843;52.020;5.670;2023-01-31T00:48:26;102187.31;;;8.40;57.23
69624;BME280;56843;52.020;5.670;2023-01-31T00:49:57;102187.59;;;8.39;57.16
69624;BME280;56843;52.020;5.670;2023-01-31T00:51:27;102184.41;;;8.37;57.11
69624;BME280;56843;52.020;5.670;2023-01-31T00:52:58;102183.84;;;8.35;56.99
69624;BME280;56843;52.020;5.670;2023-01-31T00:54:29;102189.97;;;8.35;57.15
69624;BME280;56843;52.020;5.670;2023-01-31T00:56:11;102182.28;;;8.34;57.10
69624;BME280;56843;52.020;5.670;2023-01-31T00:57:42;102175.63;;;8.31;57.20
69624;BME280;56843;52.020;5.670;2023-01-31T00:59:13;102177.50;;;8.31;57.11
69624;BME280;56843;52.020;5.670;2023-01-31T01:00:44;102171.63;;;8.29;57.19
69624;BME280;56843;52.020;5.670;2023-01-31T01:02:15;102178.81;;;8.28;57.15
69624;BME280;56843;52.020;5.670;2023-01-31T01:03:46;102175.38;;;8.28;57.17
69624;BME280;56843;52.020;5.670;2023-01-31T01:05:17;102172.22;;;8.26;57.13
69624;BME280;56843;52.020;5.670;2023-01-31T01:06:49;102182.06;;;8.25;57.03
69624;BME280;56843;52.020;5.670;2023-01-31T01:08:20;102171.66;;;8.24;57.08
69624;BME280;56843;52.020;5.670;2023-01-31T01:09:50;102173.53;;;8.23;56.96
69624;BME280;56843;52.020;5.670;2023-01-31T01:11:30;102173.03;;;8.21;57.01
69624;BME280;56843;52.020;5.670;2023-01-31T01:13:01;102179.69;;;8.19;57.13
69624;BME280;56843;52.020;5.670;2023-01-31T01:14:31;102178.88;;;8.18;57.04
69624;BME280;56843;52.020;5.670;2023-01-31T01:16:13;102175.41;;;8.18;57.09
69624;BME280;56843;52.020;5.670;2023-01-31T01:17:44;102167.19;;;8.14;56.96
69624;BME280;56843;52.020;5.670;2023-01-31T01:19:17;102164.78;;;8.12;57.05
69624;BME280;56843;52.020;5.670;2023-01-31T01:20:50;102165.88;;;8.11;57.10
69624;BME280;56843;52.020;5.670;2023-01-31T01:22:21;102158.94;;;8.10;57.18
69624;BME280;56843;52.020;5.670;2023-01-31T01:23:52;102155.75;;;8.08;57.08
69624;BME280;56843;52.020;5.670;2023-01-31T01:25:22;102153.66;;;8.05;57.23
69624;BME280;56843;52.020;5.670;2023-01-31T01:26:53;102157.09;;;8.06;57.12
69624;BME280;56843;52.020;5.670;2023-01-31T01:28:24;102153.66;;;8.05;57.04
69624;BME280;56843;52.020;5.670;2023-01-31T01:29:54;102160.84;;;8.05;56.90
69624;BME280;56843;52.020;5.670;2023-01-31T01:31:27;102152.06;;;8.04;57.03
69624;BME280;56843;52.020;5.670;2023-01-31T01:33:00;102165.63;;;8.03;57.02
69624;BME280;56843;52.020;5.670;2023-01-31T01:34:32;102159.53;;;8.02;57.14
69624;BME280;56843;52.020;5.670;2023-01-31T01:36:06;102161.38;;;8.02;56.98
69624;BME280;56843;52.020;5.670;2023-01-31T01:37:37;102161.66;;;8.00;56.79
69624;BME280;56843;52.020;5.670;2023-01-31T01:39:10;102165.13;;;8.01;56.97
69624;BME280;56843;52.020;5.670;2023-01-31T01:40:41;102153.69;;;8.00;56.99
69624;BME280;56843;52.020;5.670;2023-01-31T01:42:16;102151.81;;;8.01;57.06
69624;BME280;56843;52.020;5.670;2023-01-31T01:45:22;102171.78;;;7.98;57.10
69624;BME280;56843;52.020;5.670;2023-01-31T01:46:52;102172.03;;;7.97;57.02
69624;BME280;56843;52.020;5.670;2023-01-31T01:48:25;102171.25;;;7.96;57.05
69624;BME280;56843;52.020;5.670;2023-01-31T01:50:01;102169.66;;;7.95;56.97
69624;BME280;56843;52.020;5.670;2023-01-31T01:51:33;102174.44;;;7.93;57.08
69624;BME280;56843;52.020;5.670;2023-01-31T01:53:20;102176.06;;;7.94;57.04
69624;BME280;56843;52.020;5.670;2023-01-31T01:55:02;102168.59;;;7.91;56.99
69624;BME280;56843;52.020;5.670;2023-01-31T01:56:36;102170.75;;;7.89;57.08
69624;BME280;56843;52.020;5.670;2023-01-31T01:58:13;102186.97;;;7.88;56.93
69624;BME280;56843;52.020;5.670;2023-01-31T02:00:09;102178.47;;;7.86;57.02
69624;BME280;56843;52.020;5.670;2023-01-31T02:03:30;102188.03;;;7.82;57.32
69624;BME280;56843;52.020;5.670;2023-01-31T02:05:05;102176.63;;;7.81;57.14
69624;BME280;56843;52.020;5.670;2023-01-31T02:06:36;102170.50;;;7.81;57.03
69624;BME280;56843;52.020;5.670;2023-01-31T02:08:07;102175.00;;;7.80;57.07
69624;BME280;56843;52.020;5.670;2023-01-31T02:11:27;102182.19;;;7.80;57.20
69624;BME280;56843;52.020;5.670;2023-01-31T02:13:01;102178.72;;;7.79;57.10
69624;BME280;56843;52.020;5.670;2023-01-31T02:14:32;102181.38;;;7.79;57.12
69624;BME280;56843;52.020;5.670;2023-01-31T02:16:03;102172.63;;;7.79;57.24
69624;BME280;56843;52.020;5.670;2023-01-31T02:17:34;102172.88;;;7.77;57.25
69624;BME280;56843;52.020;5.670;2023-01-31T02:19:12;102173.41;;;7.79;57.17
69624;BME280;56843;52.020;5.670;2023-01-31T02:23:18;102185.66;;;7.75;57.37
69624;BME280;56843;52.020;5.670;2023-01-31T02:32:15;102181.94;;;7.76;57.42
69624;BME280;56843;52.020;5.670;2023-01-31T02:34:01;102170.78;;;7.74;57.41
69624;BME280;56843;52.020;5.670;2023-01-31T02:37:33;102168.94;;;7.75;57.42
69624;BME280;56843;52.020;5.670;2023-01-31T02:41:34;102160.16;;;7.74;57.53
69624;BME280;56843;52.020;5.670;2023-01-31T02:43:18;102162.53;;;7.76;57.58
69624;BME280;56843;52.020;5.670;2023-01-31T02:44:56;102161.72;;;7.75;57.59
69624;BME280;56843;52.020;5.670;2023-01-31T02:48:37;102150.03;;;7.76;57.64
69624;BME280;56843;52.020;5.670;2023-01-31T02:50:31;102140.19;;;7.77;57.77
69624;BME280;56843;52.020;5.670;2023-01-31T02:53:51;102154.03;;;7.79;57.95
69624;BME280;56843;52.020;5.670;2023-01-31T02:55:37;102146.56;;;7.81;57.84
69624;BME280;56843;52.020;5.670;2023-01-31T02:57:27;102147.63;;;7.80;57.92
69624;BME280;56843;52.020;5.670;2023-01-31T02:59:02;102140.97;;;7.82;57.94
69624;BME280;56843;52.020;5.670;2023-01-31T03:00:36;102130.03;;;7.84;57.94
69624;BME280;56843;52.020;5.670;2023-01-31T03:02:08;102135.13;;;7.85;58.06
69624;BME280;56843;52.020;5.670;2023-01-31T03:03:38;102131.38;;;7.86;58.06
69624;BME280;56843;52.020;5.670;2023-01-31T03:05:17;102127.38;;;7.89;58.17
69624;BME280;56843;52.020;5.670;2023-01-31T03:06:54;102116.75;;;7.89;58.23
69624;BME280;56843;52.020;5.670;2023-01-31T03:08:29;102126.31;;;7.90;58.21
69624;BME280;56843;52.020;5.670;2023-01-31T03:12:16;102119.13;;;7.90;58.39
69624;BME280;56843;52.020;5.670;2023-01-31T03:14:02;102117.78;;;7.93;58.44
69624;BME280;56843;52.020;5.670;2023-01-31T03:15:46;102120.19;;;7.94;58.52
69624;BME280;56843;52.020;5.670;2023-01-31T03:18:09;102112.72;;;7.96;58.47
69624;BME280;56843;52.020;5.670;2023-01-31T03:20:17;102110.06;;;7.96;58.50
69624;BME280;56843;52.020;5.670;2023-01-31T03:21:53;102112.72;;;7.96;58.62
69624;BME280;56843;52.020;5.670;2023-01-31T03:23:27;102105.28;;;7.98;58.68
69624;BME280;56843;52.020;5.670;2023-01-31T03:25:01;102114.56;;;8.01;58.65
69624;BME280;56843;52.020;5.670;2023-01-31T03:26:35;102103.66;;;8.02;58.66
69624;BME280;56843;52.020;5.670;2023-01-31T03:28:10;102104.97;;;8.05;58.88
69624;BME280;56843;52.020;5.670;2023-01-31T03:29:43;102111.09;;;8.05;58.83
69624;BME280;56843;52.020;5.670;2023-01-31T03:31:34;102112.38;;;8.08;58.92
69624;BME280;56843;52.020;5.670;2023-01-31T03:33:14;102115.84;;;8.08;59.06
69624;BME280;56843;52.020;5.670;2023-01-31T03:34:46;102112.13;;;8.09;59.00
69624;BME280;56843;52.020;5.670;2023-01-31T03:36:35;102114.22;;;8.12;59.04
69624;BME280;56843;52.020;5.670;2023-01-31T03:38:31;102120.63;;;8.11;59.25
69624;BME280;56843;52.020;5.670;2023-01-31T03:40:24;102112.13;;;8.14;59.18
69624;BME280;56843;52.020;5.670;2023-01-31T03:42:21;102105.72;;;8.15;59.16
69624;BME280;56843;52.020;5.670;2023-01-31T03:44:01;102107.31;;;8.17;59.23
69624;BME280;56843;52.020;5.670;2023-01-31T03:47:46;102091.59;;;8.20;59.46
69624;BME280;56843;52.020;5.670;2023-01-31T03:49:20;102096.91;;;8.20;59.54
69624;BME280;56843;52.020;5.670;2023-01-31T03:50:57;102090.25;;;8.23;59.52
69624;BME280;56843;52.020;5.670;2023-01-31T03:52:34;102102.22;;;8.25;59.57
69624;BME280;56843;52.020;5.670;2023-01-31T03:54:10;102098.47;;;8.26;59.63
69624;BME280;56843;52.020;5.670;2023-01-31T03:55:49;102097.13;;;8.29;59.63
69624;BME280;56843;52.020;5.670;2023-01-31T03:57:27;102102.16;;;8.30;59.71
69624;BME280;56843;52.020;5.670;2023-01-31T03:59:03;102098.16;;;8.33;59.79
69624;BME280;56843;52.020;5.670;2023-01-31T04:00:37;102094.16;;;8.35;59.84
69624;BME280;56843;52.020;5.670;2023-01-31T04:02:11;102099.47;;;8.35;59.95
69624;BME280;56843;52.020;5.670;2023-01-31T04:03:47;102087.50;;;8.38;59.94
69624;BME280;56843;52.020;5.670;2023-01-31T04:05:22;102078.44;;;8.39;60.00
69624;BME280;56843;52.020;5.670;2023-01-31T04:06:59;102078.44;;;8.39;60.08
69624;BME280;56843;52.020;5.670;2023-01-31T04:08:31;102085.84;;;8.42;60.06
69624;BME280;56843;52.020;5.670;2023-01-31T04:10:11;102078.69;;;8.42;60.09
69624;BME280;56843;52.020;5.670;2023-01-31T04:11:47;102075.47;;;8.45;60.09
69624;BME280;56843;52.020;5.670;2023-01-31T04:13:18;102073.06;;;8.44;60.30
69624;BME280;56843;52.020;5.670;2023-01-31T04:14:48;102086.63;;;8.47;60.26
69624;BME280;56843;52.020;5.670;2023-01-31T04:16:19;102081.31;;;8.47;60.22
69624;BME280;56843;52.020;5.670;2023-01-31T04:17:50;102079.97;;;8.50;60.47
69624;BME280;56843;52.020;5.670;2023-01-31T04:19:20;102079.97;;;8.50;60.32
69624;BME280;56843;52.020;5.670;2023-01-31T04:20:51;102087.66;;;8.51;60.42
69624;BME280;56843;52.020;5.670;2023-01-31T04:22:21;102080.47;;;8.52;60.36
69624;BME280;56843;52.020;5.670;2023-01-31T04:23:52;102075.94;;;8.52;60.50
69624;BME280;56843;52.020;5.670;2023-01-31T04:25:22;102070.34;;;8.54;60.52
69624;BME280;56843;52.020;5.670;2023-01-31T04:26:53;102077.53;;;8.53;60.62
69624;BME280;56843;52.020;5.670;2023-01-31T04:28:23;102076.19;;;8.56;60.69
69624;BME280;56843;52.020;5.670;2023-01-31T04:29:54;102070.06;;;8.55;60.72
69624;BME280;56843;52.020;5.670;2023-01-31T04:31:25;102075.09;;;8.57;60.72
69624;BME280;56843;52.020;5.670;2023-01-31T04:32:55;102071.38;;;8.58;60.65
69624;BME280;56843;52.020;5.670;2023-01-31T04:34:26;102072.97;;;8.59;60.68
69624;BME280;56843;52.020;5.670;2023-01-31T04:35:57;102060.72;;;8.58;60.83
69624;BME280;56843;52.020;5.670;2023-01-31T04:37:28;102067.38;;;8.60;60.81
69624;BME280;56843;52.020;5.670;2023-01-31T04:38:58;102065.53;;;8.61;60.86
69624;BME280;56843;52.020;5.670;2023-01-31T04:40:30;102057.56;;;8.61;61.03
69624;BME280;56843;52.020;5.670;2023-01-31T04:42:00;102059.13;;;8.62;60.89
69624;BME280;56843;52.020;5.670;2023-01-31T04:43:31;102060.22;;;8.61;60.96
69624;BME280;56843;52.020;5.670;2023-01-31T04:45:01;102060.72;;;8.63;61.12
69624;BME280;56843;52.020;5.670;2023-01-31T04:46:33;102060.72;;;8.63;61.03
69624;BME280;56843;52.020;5.670;2023-01-31T04:48:03;102061.50;;;8.63;61.05
69624;BME280;56843;52.020;5.670;2023-01-31T04:49:34;102064.97;;;8.64;61.20
69624;BME280;56843;52.020;5.670;2023-01-31T04:51:04;102070.03;;;8.65;61.00
69624;BME280;56843;52.020;5.670;2023-01-31T04:52:35;102064.72;;;8.65;61.04
69624;BME280;56843;52.020;5.670;2023-01-31T04:54:06;102066.28;;;8.66;61.01
69624;BME280;56843;52.020;5.670;2023-01-31T04:55:37;102067.09;;;8.67;61.10
69624;BME280;56843;52.020;5.670;2023-01-31T04:57:07;102067.88;;;8.67;61.14
69624;BME280;56843;52.020;5.670;2023-01-31T04:58:38;102049.25;;;8.67;61.10
69624;BME280;56843;52.020;5.670;2023-01-31T05:00:11;102038.31;;;8.69;61.11
69624;BME280;56843;52.020;5.670;2023-01-31T05:01:41;102039.34;;;8.68;61.14
69624;BME280;56843;52.020;5.670;2023-01-31T05:03:12;102034.84;;;8.68;61.24
69624;BME280;56843;52.020;5.670;2023-01-31T05:04:43;102033.25;;;8.67;61.21
69624;BME280;56843;52.020;5.670;2023-01-31T05:06:13;102026.84;;;8.68;61.26
69624;BME280;56843;52.020;5.670;2023-01-31T05:07:44;102026.03;;;8.68;61.40
69624;BME280;56843;52.020;5.670;2023-01-31T05:09:14;102028.69;;;8.68;61.28
69624;BME280;56843;52.020;5.670;2023-01-31T05:10:45;102026.03;;;8.68;61.43
69624;BME280;56843;52.020;5.670;2023-01-31T05:12:18;102019.66;;;8.69;61.33
69624;BME280;56843;52.020;5.670;2023-01-31T05:13:49;102031.13;;;8.69;61.25
69624;BME280;56843;52.020;5.670;2023-01-31T05:15:19;102030.31;;;8.69;61.26
69624;BME280;56843;52.020;5.670;2023-01-31T05:16:50;102022.03;;;8.70;61.39
69624;BME280;56843;52.020;5.670;2023-01-31T05:18:21;102024.69;;;8.70;61.43
69624;BME280;56843;52.020;5.670;2023-01-31T05:19:51;102022.84;;;8.71;61.48
69624;BME280;56843;52.020;5.670;2023-01-31T05:21:22;102015.66;;;8.71;61.48
69624;BME280;56843;52.020;5.670;2023-01-31T05:22:52;102020.69;;;8.73;61.38
69624;BME280;56843;52.020;5.670;2023-01-31T05:24:28;102019.88;;;8.72;61.48
69624;BME280;56843;52.020;5.670;2023-01-31T05:25:59;102023.06;;;8.74;61.45
69624;BME280;56843;52.020;5.670;2023-01-31T05:27:29;102027.59;;;8.74;61.47
69624;BME280;56843;52.020;5.670;2023-01-31T05:29:00;102023.84;;;8.75;61.55
69624;BME280;56843;52.020;5.670;2023-01-31T05:30:32;102020.38;;;8.74;61.61
69624;BME280;56843;52.020;5.670;2023-01-31T05:32:03;102019.34;;;8.75;61.63
69624;BME280;56843;52.020;5.670;2023-01-31T05:33:33;102010.53;;;8.75;61.72
69624;BME280;56843;52.020;5.670;2023-01-31T05:35:05;102009.47;;;8.76;61.64
69624;BME280;56843;52.020;5.670;2023-01-31T05:36:35;102016.38;;;8.77;61.94
69624;BME280;56843;52.020;5.670;2023-01-31T05:38:06;102015.31;;;8.78;61.60
69624;BME280;56843;52.020;5.670;2023-01-31T05:39:36;102024.88;;;8.79;61.73
69624;BME280;56843;52.020;5.670;2023-01-31T05:41:07;102026.78;;;8.78;61.71
69624;BME280;56843;52.020;5.670;2023-01-31T05:42:38;102015.31;;;8.78;61.72
69624;BME280;56843;52.020;5.670;2023-01-31T05:44:08;102020.34;;;8.79;61.76
69624;BME280;56843;52.020;5.670;2023-01-31T05:45:40;102014.22;;;8.79;61.89
69624;BME280;56843;52.020;5.670;2023-01-31T05:47:10;102014.22;;;8.79;61.75
69624;BME280;56843;52.020;5.670;2023-01-31T05:48:41;102025.69;;;8.79;61.83
69624;BME280;56843;52.020;5.670;2023-01-31T05:50:11;102026.47;;;8.80;61.96
69624;BME280;56843;52.020;5.670;2023-01-31T05:51:42;102007.84;;;8.80;62.02
69624;BME280;56843;52.020;5.670;2023-01-31T05:53:12;102021.16;;;8.80;61.99
69624;BME280;56843;52.020;5.670;2023-01-31T05:54:43;102020.34;;;8.79;62.13
69624;BME280;56843;52.020;5.670;2023-01-31T05:56:14;102023.53;;;8.81;62.07
69624;BME280;56843;52.020;5.670;2023-01-31T05:57:45;102006.50;;;8.82;62.04
69624;BME280;56843;52.020;5.670;2023-01-31T05:59:16;102019.81;;;8.82;62.07
69624;BME280;56843;52.020;5.670;2023-01-31T06:00:46;102022.47;;;8.82;62.01
69624;BME280;56843;52.020;5.670;2023-01-31T06:02:17;102010.72;;;8.83;62.04
69624;BME280;56843;52.020;5.670;2023-01-31T06:03:47;102009.66;;;8.84;62.20
69624;BME280;56843;52.020;5.670;2023-01-31T06:05:18;101999.00;;;8.84;62.06
69624;BME280;56843;52.020;5.670;2023-01-31T06:06:48;102007.22;;;8.88;62.16
69624;BME280;56843;52.020;5.670;2023-01-31T06:08:19;102001.84;;;8.93;62.52
69624;BME280;56843;52.020;5.670;2023-01-31T06:09:49;101999.94;;;8.99;62.57
69624;BME280;56843;52.020;5.670;2023-01-31T06:11:20;101998.00;;;9.04;62.77
69624;BME280;56843;52.020;5.670;2023-01-31T06:12:50;101999.53;;;9.10;62.77
69624;BME280;56843;52.020;5.670;2023-01-31T06:14:21;101990.69;;;9.15;62.99
69624;BME280;56843;52.020;5.670;2023-01-31T06:15:51;101983.72;;;9.19;63.40
69624;BME280;56843;52.020;5.670;2023-01-31T06:17:22;101984.47;;;9.24;63.19
69624;BME280;56843;52.020;5.670;2023-01-31T06:18:55;101986.28;;;9.29;63.00
69624;BME280;56843;52.020;5.670;2023-01-31T06:20:26;101972.88;;;9.34;63.24
69624;BME280;56843;52.020;5.670;2023-01-31T06:21:56;101977.38;;;9.38;63.52
69624;BME280;56843;52.020;5.670;2023-01-31T06:23:27;101977.28;;;9.43;63.51
69624;BME280;56843;52.020;5.670;2023-01-31T06:24:58;101969.53;;;9.47;63.31
69624;BME280;56843;52.020;5.670;2023-01-31T06:26:28;101965.19;;;9.51;63.46
69624;BME280;56843;52.020;5.670;2023-01-31T06:27:59;101979.25;;;9.56;63.46
69624;BME280;56843;52.020;5.670;2023-01-31T06:29:29;101977.63;;;9.60;63.54
69624;BME280;56843;52.020;5.670;2023-01-31T06:31:08;101971.41;;;9.65;63.62
69624;BME280;56843;52.020;5.670;2023-01-31T06:32:39;101969.25;;;9.67;63.71
69624;BME280;56843;52.020;5.670;2023-01-31T06:34:10;101974.50;;;9.72;63.72
69624;BME280;56843;52.020;5.670;2023-01-31T06:35:40;101965.94;;;9.75;63.62
69624;BME280;56843;52.020;5.670;2023-01-31T06:37:11;101963.47;;;9.79;63.31
69624;BME280;56843;52.020;5.670;2023-01-31T06:38:41;101967.16;;;9.83;63.47
69624;BME280;56843;52.020;5.670;2023-01-31T06:40:12;101960.44;;;9.85;63.63
69624;BME280;56843;52.020;5.670;2023-01-31T06:41:43;101969.47;;;9.89;63.67
69624;BME280;56843;52.020;5.670;2023-01-31T06:43:14;101969.69;;;9.93;63.73
69624;BME280;56843;52.020;5.670;2023-01-31T06:44:44;101968.31;;;9.95;63.63
69624;BME280;56843;52.020;5.670;2023-01-31T06:46:15;101970.97;;;9.95;63.56
69624;BME280;56843;52.020;5.670;2023-01-31T06:47:45;101974.34;;;10.01;63.68
69624;BME280;56843;52.020;5.670;2023-01-31T06:49:16;101972.97;;;10.03;63.51
69624;BME280;56843;52.020;5.670;2023-01-31T06:50:46;101965.47;;;10.05;63.44
69624;BME280;56843;52.020;5.670;2023-01-31T06:52:17;101969.16;;;10.09;63.70
69624;BME280;56843;52.020;5.670;2023-01-31T06:53:47;101973.91;;;10.12;63.67
69624;BME280;56843;52.020;5.670;2023-01-31T06:55:20;101966.41;;;10.14;63.66
69624;BME280;56843;52.020;5.670;2023-01-31T06:56:51;101960.53;;;10.17;63.57
69624;BME280;56843;52.020;5.670;2023-01-31T06:58:21;101964.50;;;10.20;63.28
69624;BME280;56843;52.020;5.670;2023-01-31T06:59:51;101950.06;;;10.21;63.36
69624;BME280;56843;52.020;5.670;2023-01-31T07:01:22;101960.16;;;10.24;63.19
69624;BME280;56843;52.020;5.670;2023-01-31T07:02:53;101956.91;;;10.27;63.57
69624;BME280;56843;52.020;5.670;2023-01-31T07:04:25;101949.69;;;10.27;63.18
69624;BME280;56843;52.020;5.670;2023-01-31T07:05:55;101960.59;;;10.31;63.28
69624;BME280;56843;52.020;5.670;2023-01-31T07:07:26;101955.75;;;10.33;63.22
69624;BME280;56843;52.020;5.670;2023-01-31T07:08:57;101957.81;;;10.36;63.20
69624;BME280;56843;52.020;5.670;2023-01-31T07:10:27;101954.06;;;10.37;63.45
69624;BME280;56843;52.020;5.670;2023-01-31T07:11:57;101959.31;;;10.42;63.04
69624;BME280;56843;52.020;5.670;2023-01-31T07:13:28;101953.97;;;10.42;63.31
69624;BME280;56843;52.020;5.670;2023-01-31T07:14:59;101951.00;;;10.44;63.13
69624;BME280;56843;52.020;5.670;2023-01-31T07:16:30;101940.81;;;10.46;63.17
69624;BME280;56843;52.020;5.670;2023-01-31T07:18:00;101944.28;;;10.46;63.11
69624;BME280;56843;52.020;5.670;2023-01-31T07:19:31;101945.88;;;10.47;63.25
69624;BME280;56843;52.020;5.670;2023-01-31T07:21:01;101950.13;;;10.48;63.20
69624;BME280;56843;52.020;5.670;2023-01-31T07:22:32;101939.94;;;10.50;63.06
69624;BME280;56843;52.020;5.670;2023-01-31T07:24:03;101945.78;;;10.52;62.98
69624;BME280;56843;52.020;5.670;2023-01-31T07:25:34;101948.16;;;10.54;62.82
69624;BME280;56843;52.020;5.670;2023-01-31T07:27:05;101940.94;;;10.54;63.01
69624;BME280;56843;52.020;5.670;2023-01-31T07:28:35;101933.72;;;10.55;62.99
69624;BME280;56843;52.020;5.670;2023-01-31T07:30:07;101929.69;;;10.57;63.14
69624;BME280;56843;52.020;5.670;2023-01-31T07:31:38;101935.81;;;10.58;62.85
69624;BME280;56843;52.020;5.670;2023-01-31T07:33:10;101941.94;;;10.58;62.73
69624;BME280;56843;52.020;5.670;2023-01-31T07:34:40;101924.03;;;10.59;62.79
69624;BME280;56843;52.020;5.670;2023-01-31T07:36:13;101922.97;;;10.60;62.56
69624;BME280;56843;52.020;5.670;2023-01-31T07:37:44;101927.19;;;10.61;62.51
69624;BME280;56843;52.020;5.670;2023-01-31T07:39:15;101927.19;;;10.61;62.65
69624;BME280;56843;52.020;5.670;2023-01-31T07:40:46;101934.13;;;10.62;62.45
69624;BME280;56843;52.020;5.670;2023-01-31T07:42:16;101922.34;;;10.63;62.48
69624;BME280;56843;52.020;5.670;2023-01-31T07:43:47;101927.41;;;10.64;62.32
69624;BME280;56843;52.020;5.670;2023-01-31T07:45:17;101918.59;;;10.64;62.39
69624;BME280;56843;52.020;5.670;2023-01-31T07:46:48;101916.44;;;10.66;62.29
69624;BME280;56843;52.020;5.670;2023-01-31T07:48:18;101921.78;;;10.66;62.28
69624;BME280;56843;52.020;5.670;2023-01-31T07:49:52;101919.91;;;10.66;62.44
69624;BME280;56843;52.020;5.670;2023-01-31T07:51:23;101915.06;;;10.68;62.43
69624;BME280;56843;52.020;5.670;2023-01-31T07:52:53;101917.72;;;10.68;62.19
69624;BME280;56843;52.020;5.670;2023-01-31T07:54:26;101907.84;;;10.69;62.04
69624;BME280;56843;52.020;5.670;2023-01-31T07:56:14;101909.91;;;10.72;62.00
69624;BME280;56843;52.020;5.670;2023-01-31T07:57:44;101916.63;;;10.69;62.09
69624;BME280;56843;52.020;5.670;2023-01-31T07:59:15;101917.41;;;10.70;61.98
69624;BME280;56843;52.020;5.670;2023-01-31T08:00:46;101916.34;;;10.71;62.12
69624;BME280;56843;52.020;5.670;2023-01-31T08:02:35;101924.63;;;10.69;62.11
69624;BME280;56843;52.020;5.670;2023-01-31T08:04:24;101916.63;;;10.69;62.10
69624;BME280;56843;52.020;5.670;2023-01-31T08:05:55;101910.19;;;10.70;61.95
69624;BME280;56843;52.020;5.670;2023-01-31T08:07:26;101907.22;;;10.72;61.79
69624;BME280;56843;52.020;5.670;2023-01-31T08:08:59;101897.34;;;10.72;61.98
69624;BME280;56843;52.020;5.670;2023-01-31T08:10:33;101904.28;;;10.73;61.82
69624;BME280;56843;52.020;5.670;2023-01-31T08:12:04;101898.94;;;10.73;61.84
69624;BME280;56843;52.020;5.670;2023-01-31T08:13:36;101905.84;;;10.74;61.75
69624;BME280;56843;52.020;5.670;2023-01-31T08:15:07;101895.16;;;10.74;61.76
69624;BME280;56843;52.020;5.670;2023-01-31T08:16:37;101903.97;;;10.75;61.68
69624;BME280;56843;52.020;5.670;2023-01-31T08:18:09;101904.28;;;10.73;61.58
69624;BME280;56843;52.020;5.670;2023-01-31T08:19:39;101892.19;;;10.76;61.81
69624;BME280;56843;52.020;5.670;2023-01-31T08:21:11;101891.41;;;10.75;61.57
69624;BME280;56843;52.020;5.670;2023-01-31T08:22:42;101894.09;;;10.75;61.70
69624;BME280;56843;52.020;5.670;2023-01-31T08:24:12;101886.06;;;10.75;61.53
69624;BME280;56843;52.020;5.670;2023-01-31T08:25:43;101886.84;;;10.76;61.80
69624;BME280;56843;52.020;5.670;2023-01-31T08:27:13;101880.41;;;10.77;61.68
69624;BME280;56843;52.020;5.670;2023-01-31T08:28:44;101871.59;;;10.76;61.53
69624;BME280;56843;52.020;5.670;2023-01-31T08:30:15;101879.34;;;10.78;61.25
69624;BME280;56843;52.020;5.670;2023-01-31T08:31:46;101877.75;;;10.77;61.32
69624;BME280;56843;52.020;5.670;2023-01-31T08:33:16;101877.75;;;10.77;61.56
69624;BME280;56843;52.020;5.670;2023-01-31T08:34:48;101872.41;;;10.77;61.43
69624;BME280;56843;52.020;5.670;2023-01-31T08:36:26;101872.09;;;10.78;61.27
69624;BME280;56843;52.020;5.670;2023-01-31T08:37:57;101879.63;;;10.76;61.35
69624;BME280;56843;52.020;5.670;2023-01-31T08:39:28;101874.00;;;10.78;61.10